sensor_id;sensor_type;location;lat;lon;timestamp;temperature;humidity
15922;DHT22;8060;50.948;3.146;2023-07-13T04:25:32;16.30;99.90
15922;DHT22;8060;50.948;3.146;2023-07-13T04:28:00;16.30;99.90
15922;DHT22;8060;50.948;3.146;2023-07-13T04:30:28;16.40;99.90
15922;DHT22;8060;50.948;3.146;2023-07-13T04:32:56;16.40;99.90
15922;DHT22;8060;50.948;3.146;2023-07-13T04:35:24;16.40;99.90
15922;DHT22;8060;50.948;3.146;2023-07-13T04:37:53;16.50;99.90
15922;DHT22;8060;50.948;3.146;2023-07-13T04:40:21;16.50;99.90
15922;DHT22;8060;50.948;3.146;2023-07-13T04:42:51;16.50;99.90
15922;DHT22;8060;50.948;3.146;2023-07-13T04:45:19;16.70;99.90
15922;DHT22;8060;50.948;3.146;2023-07-13T04:47:47;16.70;99.90
15922;DHT22;8060;50.948;3.146;2023-07-13T04:50:15;16.70;99.90
15922;DHT22;8060;50.948;3.146;2023-07-13T04:52:47;16.70;99.90
15922;DHT22;8060;50.948;3.146;2023-07-13T04:55:16;16.70;99.90
15922;DHT22;8060;50.948;3.146;2023-07-13T04:57:45;16.80;99.90
15922;DHT22;8060;50.948;3.146;2023-07-13T05:00:15;16.80;99.90
15922;DHT22;8060;50.948;3.146;2023-07-13T05:02:44;16.90;99.90
15922;DHT22;8060;50.948;3.146;2023-07-13T05:05:13;16.90;99.90
15922;DHT22;8060;50.948;3.146;2023-07-13T05:07:41;16.90;99.90
15922;DHT22;8060;50.948;3.146;2023-07-13T05:10:11;17.00;99.90
15922;DHT22;8060;50.948;3.146;2023-07-13T05:12:39;17.00;99.90
15922;DHT22;8060;50.948;3.146;2023-07-13T05:15:08;17.00;99.90
15922;DHT22;8060;50.948;3.146;2023-07-13T05:17:37;17.10;99.90
15922;DHT22;8060;50.948;3.146;2023-07-13T05:20:08;17.10;99.90
15922;DHT22;8060;50.948;3.146;2023-07-13T05:22:36;17.00;99.90
15922;DHT22;8060;50.948;3.146;2023-07-13T05:25:05;17.10;99.90
15922;DHT22;8060;50.948;3.146;2023-07-13T05:27:34;17.20;99.90
15922;DHT22;8060;50.948;3.146;2023-07-13T05:30:04;17.10;99.90
15922;DHT22;8060;50.948;3.146;2023-07-13T05:32:33;17.20;99.90
15922;DHT22;8060;50.948;3.146;2023-07-13T05:35:03;17.30;99.90
15922;DHT22;8060;50.948;3.146;2023-07-13T05:37:31;17.30;99.90
15922;DHT22;8060;50.948;3.146;2023-07-13T05:39:59;17.30;99.90
15922;DHT22;8060;50.948;3.146;2023-07-13T05:42:27;17.30;99.90
15922;DHT22;8060;50.948;3.146;2023-07-13T05:44:55;17.20;99.90
15922;DHT22;8060;50.948;3.146;2023-07-13T05:47:23;17.30;99.90
15922;DHT22;8060;50.948;3.146;2023-07-13T05:49:51;17.30;99.90
15922;DHT22;8060;50.948;3.146;2023-07-13T05:52:21;17.40;99.90
15922;DHT22;8060;50.948;3.146;2023-07-13T05:54:49;17.40;99.90
15922;DHT22;8060;50.948;3.146;2023-07-13T05:57:17;17.40;99.90
15922;DHT22;8060;50.948;3.146;2023-07-13T05:59:45;17.50;99.90
15922;DHT22;8060;50.948;3.146;2023-07-13T06:02:14;17.50;99.90
15922;DHT22;8060;50.948;3.146;2023-07-13T06:04:42;17.60;99.90
15922;DHT22;8060;50.948;3.146;2023-07-13T06:07:10;17.70;99.90
15922;DHT22;8060;50.948;3.146;2023-07-13T06:09:39;17.70;99.90
15922;DHT22;8060;50.948;3.146;2023-07-13T06:12:08;17.70;99.90
15922;DHT22;8060;50.948;3.146;2023-07-13T06:14:36;17.80;99.90
15922;DHT22;8060;50.948;3.146;2023-07-13T06:17:05;17.90;99.90
15922;DHT22;8060;50.948;3.146;2023-07-13T06:19:33;17.90;99.90
15922;DHT22;8060;50.948;3.146;2023-07-13T06:22:02;17.90;99.90
15922;DHT22;8060;50.948;3.146;2023-07-13T06:24:30;17.90;99.90
15922;DHT22;8060;50.948;3.146;2023-07-13T06:26:59;18.00;99.90
15922;DHT22;8060;50.948;3.146;2023-07-13T06:29:27;18.10;99.90
15922;DHT22;8060;50.948;3.146;2023-07-13T06:31:55;18.20;99.90
15922;DHT22;8060;50.948;3.146;2023-07-13T06:34:24;18.10;99.90
15922;DHT22;8060;50.948;3.146;2023-07-13T06:36:52;18.20;99.90
15922;DHT22;8060;50.948;3.146;2023-07-13T06:39:20;18.30;99.90
15922;DHT22;8060;50.948;3.146;2023-07-13T06:41:48;18.30;99.90
15922;DHT22;8060;50.948;3.146;2023-07-13T06:44:17;18.40;99.90
15922;DHT22;8060;50.948;3.146;2023-07-13T06:46:45;18.50;99.90
15922;DHT22;8060;50.948;3.146;2023-07-13T06:49:13;18.50;99.90
15922;DHT22;8060;50.948;3.146;2023-07-13T06:51:42;18.50;99.90
15922;DHT22;8060;50.948;3.146;2023-07-13T06:54:10;18.50;99.90
15922;DHT22;8060;50.948;3.146;2023-07-13T06:56:38;18.50;99.90
15922;DHT22;8060;50.948;3.146;2023-07-13T06:59:06;18.70;99.90
15922;DHT22;8060;50.948;3.146;2023-07-13T07:01:35;18.70;99.90
15922;DHT22;8060;50.948;3.146;2023-07-13T07:04:07;18.80;99.90
15922;DHT22;8060;50.948;3.146;2023-07-13T07:06:35;18.70;99.90
15922;DHT22;8060;50.948;3.146;2023-07-13T07:09:03;18.80;99.90
15922;DHT22;8060;50.948;3.146;2023-07-13T07:11:32;19.00;99.90
15922;DHT22;8060;50.948;3.146;2023-07-13T07:14:00;19.00;99.90
15922;DHT22;8060;50.948;3.146;2023-07-13T07:16:28;19.10;99.90
15922;DHT22;8060;50.948;3.146;2023-07-13T07:18:57;19.10;99.90
15922;DHT22;8060;50.948;3.146;2023-07-13T07:21:25;19.20;99.90
15922;DHT22;8060;50.948;3.146;2023-07-13T07:23:54;19.30;99.90
15922;DHT22;8060;50.948;3.146;2023-07-13T07:26:22;19.30;99.90
15922;DHT22;8060;50.948;3.146;2023-07-13T07:28:53;19.40;99.90
15922;DHT22;8060;50.948;3.146;2023-07-13T07:31:41;19.30;99.90
15922;DHT22;8060;50.948;3.146;2023-07-13T07:34:14;19.30;99.90
15922;DHT22;8060;50.948;3.146;2023-07-13T07:36:42;19.30;99.90
15922;DHT22;8060;50.948;3.146;2023-07-13T07:39:13;19.50;99.90
15922;DHT22;8060;50.948;3.146;2023-07-13T07:41:41;19.50;99.90
15922;DHT22;8060;50.948;3.146;2023-07-13T07:44:23;19.50;99.90
15922;DHT22;8060;50.948;3.146;2023-07-13T07:46:51;19.50;99.90
15922;DHT22;8060;50.948;3.146;2023-07-13T07:49:21;19.50;99.90
15922;DHT22;8060;50.948;3.146;2023-07-13T07:51:49;19.50;99.90
15922;DHT22;8060;50.948;3.146;2023-07-13T07:54:17;19.50;99.90
15922;DHT22;8060;50.948;3.146;2023-07-13T07:57:06;19.50;99.90
15922;DHT22;8060;50.948;3.146;2023-07-13T07:59:37;19.50;99.90
15922;DHT22;8060;50.948;3.146;2023-07-13T08:02:10;19.60;99.90
15922;DHT22;8060;50.948;3.146;2023-07-13T08:04:59;19.70;99.90
15922;DHT22;8060;50.948;3.146;2023-07-13T08:07:31;19.90;99.90
15922;DHT22;8060;50.948;3.146;2023-07-13T08:09:59;19.90;99.90
15922;DHT22;8060;50.948;3.146;2023-07-13T08:12:27;20.00;99.90
15922;DHT22;8060;50.948;3.146;2023-07-13T08:14:58;20.10;99.90
15922;DHT22;8060;50.948;3.146;2023-07-13T08:17:27;20.10;99.90
15922;DHT22;8060;50.948;3.146;2023-07-13T08:19:56;20.20;99.90
15922;DHT22;8060;50.948;3.146;2023-07-13T08:22:25;20.20;99.90
15922;DHT22;8060;50.948;3.146;2023-07-13T08:24:53;20.30;99.90
15922;DHT22;8060;50.948;3.146;2023-07-13T08:27:23;20.40;99.90
15922;DHT22;8060;50.948;3.146;2023-07-13T08:29:52;20.60;99.90
15922;DHT22;8060;50.948;3.146;2023-07-13T08:32:22;20.90;99.90
15922;DHT22;8060;50.948;3.146;2023-07-13T08:34:51;21.00;99.90
15922;DHT22;8060;50.948;3.146;2023-07-13T08:37:19;21.20;99.90
15922;DHT22;8060;50.948;3.146;2023-07-13T08:39:48;21.40;99.90
15922;DHT22;8060;50.948;3.146;2023-07-13T08:42:36;21.40;99.90
15922;DHT22;8060;50.948;3.146;2023-07-13T08:45:12;21.50;99.90
15922;DHT22;8060;50.948;3.146;2023-07-13T08:47:53;21.60;99.90
15922;DHT22;8060;50.948;3.146;2023-07-13T08:50:25;21.50;99.90
15922;DHT22;8060;50.948;3.146;2023-07-13T08:52:56;21.60;99.90
15922;DHT22;8060;50.948;3.146;2023-07-13T08:55:29;21.40;99.90
15922;DHT22;8060;50.948;3.146;2023-07-13T08:58:05;21.40;99.90
15922;DHT22;8060;50.948;3.146;2023-07-13T09:00:44;21.30;99.90
15922;DHT22;8060;50.948;3.146;2023-07-13T09:03:22;21.40;99.90
15922;DHT22;8060;50.948;3.146;2023-07-13T09:05:54;21.40;99.90
15922;DHT22;8060;50.948;3.146;2023-07-13T09:08:37;21.40;99.90
15922;DHT22;8060;50.948;3.146;2023-07-13T09:11:23;21.70;99.90
15922;DHT22;8060;50.948;3.146;2023-07-13T09:14:02;21.90;99.90
15922;DHT22;8060;50.948;3.146;2023-07-13T09:16:33;21.90;99.90
15922;DHT22;8060;50.948;3.146;2023-07-13T09:19:06;21.90;99.90
15922;DHT22;8060;50.948;3.146;2023-07-13T09:21:38;22.00;99.90
15922;DHT22;8060;50.948;3.146;2023-07-13T09:24:36;22.00;99.90
15922;DHT22;8060;50.948;3.146;2023-07-13T09:27:22;22.10;99.90
15922;DHT22;8060;50.948;3.146;2023-07-13T09:29:57;22.40;99.90
15922;DHT22;8060;50.948;3.146;2023-07-13T09:32:26;22.70;99.90
15922;DHT22;8060;50.948;3.146;2023-07-13T09:34:55;22.80;99.90
15922;DHT22;8060;50.948;3.146;2023-07-13T09:37:29;23.10;99.90
15922;DHT22;8060;50.948;3.146;2023-07-13T09:39:59;23.40;99.90
15922;DHT22;8060;50.948;3.146;2023-07-13T09:42:33;23.50;99.90
15922;DHT22;8060;50.948;3.146;2023-07-13T09:45:02;23.50;99.90
15922;DHT22;8060;50.948;3.146;2023-07-13T09:47:39;23.60;99.90
15922;DHT22;8060;50.948;3.146;2023-07-13T09:50:15;23.40;99.90
15922;DHT22;8060;50.948;3.146;2023-07-13T09:52:45;23.30;99.90
15922;DHT22;8060;50.948;3.146;2023-07-13T09:55:26;23.20;99.90
15922;DHT22;8060;50.948;3.146;2023-07-13T09:57:55;22.60;99.90
15922;DHT22;8060;50.948;3.146;2023-07-13T10:00:26;22.30;99.90
15922;DHT22;8060;50.948;3.146;2023-07-13T10:03:05;21.60;99.90
15922;DHT22;8060;50.948;3.146;2023-07-13T10:05:41;20.90;99.90
15922;DHT22;8060;50.948;3.146;2023-07-13T10:08:22;20.60;99.90
15922;DHT22;8060;50.948;3.146;2023-07-13T10:10:58;20.10;99.90
15922;DHT22;8060;50.948;3.146;2023-07-13T10:13:31;19.70;99.90
15922;DHT22;8060;50.948;3.146;2023-07-13T10:16:01;19.60;99.90
15922;DHT22;8060;50.948;3.146;2023-07-13T10:18:43;19.70;99.90
15922;DHT22;8060;50.948;3.146;2023-07-13T10:21:15;19.80;99.90
15922;DHT22;8060;50.948;3.146;2023-07-13T10:23:50;19.70;99.90
15922;DHT22;8060;50.948;3.146;2023-07-13T10:26:23;19.80;99.90
15922;DHT22;8060;50.948;3.146;2023-07-13T10:28:56;19.90;99.90
15922;DHT22;8060;50.948;3.146;2023-07-13T10:31:27;20.10;99.90
15922;DHT22;8060;50.948;3.146;2023-07-13T10:33:55;20.40;99.90
15922;DHT22;8060;50.948;3.146;2023-07-13T10:36:31;20.40;99.90
15922;DHT22;8060;50.948;3.146;2023-07-13T10:39:03;20.60;99.90
15922;DHT22;8060;50.948;3.146;2023-07-13T10:41:37;20.80;99.90
15922;DHT22;8060;50.948;3.146;2023-07-13T10:44:15;21.10;99.90
15922;DHT22;8060;50.948;3.146;2023-07-13T10:46:45;21.40;99.90
15922;DHT22;8060;50.948;3.146;2023-07-13T10:49:14;21.40;99.90
15922;DHT22;8060;50.948;3.146;2023-07-13T10:51:43;21.40;99.90
15922;DHT22;8060;50.948;3.146;2023-07-13T10:54:20;21.60;99.90
15922;DHT22;8060;50.948;3.146;2023-07-13T10:57:10;21.90;99.90
15922;DHT22;8060;50.948;3.146;2023-07-13T10:59:47;22.30;99.90
15922;DHT22;8060;50.948;3.146;2023-07-13T11:02:23;22.70;99.90
15922;DHT22;8060;50.948;3.146;2023-07-13T11:04:56;22.80;99.90
15922;DHT22;8060;50.948;3.146;2023-07-13T11:07:27;22.70;99.90
15922;DHT22;8060;50.948;3.146;2023-07-13T11:09:57;22.50;99.90
15922;DHT22;8060;50.948;3.146;2023-07-13T11:12:51;22.30;99.90
15922;DHT22;8060;50.948;3.146;2023-07-13T11:15:44;22.30;99.90
15922;DHT22;8060;50.948;3.146;2023-07-13T11:18:22;22.30;99.90
15922;DHT22;8060;50.948;3.146;2023-07-13T11:20:52;22.40;99.90
15922;DHT22;8060;50.948;3.146;2023-07-13T11:23:30;22.80;99.90
15922;DHT22;8060;50.948;3.146;2023-07-13T11:25:59;23.00;99.90
15922;DHT22;8060;50.948;3.146;2023-07-13T11:28:31;23.30;99.90
15922;DHT22;8060;50.948;3.146;2023-07-13T11:31:10;23.60;99.90
15922;DHT22;8060;50.948;3.146;2023-07-13T11:33:54;23.80;99.90
15922;DHT22;8060;50.948;3.146;2023-07-13T11:36:35;24.00;99.90
15922;DHT22;8060;50.948;3.146;2023-07-13T11:39:17;24.30;99.90
15922;DHT22;8060;50.948;3.146;2023-07-13T11:41:50;24.20;99.90
15922;DHT22;8060;50.948;3.146;2023-07-13T11:44:20;24.40;99.90
15922;DHT22;8060;50.948;3.146;2023-07-13T11:46:52;24.40;99.90
15922;DHT22;8060;50.948;3.146;2023-07-13T11:49:24;24.40;99.90
15922;DHT22;8060;50.948;3.146;2023-07-13T11:51:54;24.50;99.90
15922;DHT22;8060;50.948;3.146;2023-07-13T11:54:27;24.70;99.90
15922;DHT22;8060;50.948;3.146;2023-07-13T11:56:59;24.70;99.90
15922;DHT22;8060;50.948;3.146;2023-07-13T11:59:30;24.80;99.90
15922;DHT22;8060;50.948;3.146;2023-07-13T12:02:00;24.90;99.90
15922;DHT22;8060;50.948;3.146;2023-07-13T12:04:32;25.00;99.90
15922;DHT22;8060;50.948;3.146;2023-07-13T12:07:07;24.90;99.90
15922;DHT22;8060;50.948;3.146;2023-07-13T12:09:36;24.90;99.90
15922;DHT22;8060;50.948;3.146;2023-07-13T12:12:11;25.10;99.90
15922;DHT22;8060;50.948;3.146;2023-07-13T12:14:40;25.10;99.90
15922;DHT22;8060;50.948;3.146;2023-07-13T12:17:19;25.20;99.90
15922;DHT22;8060;50.948;3.146;2023-07-13T12:19:48;25.20;99.90
15922;DHT22;8060;50.948;3.146;2023-07-13T12:22:18;25.20;99.90
15922;DHT22;8060;50.948;3.146;2023-07-13T12:24:47;25.30;99.90
15922;DHT22;8060;50.948;3.146;2023-07-13T12:27:20;25.40;99.90
15922;DHT22;8060;50.948;3.146;2023-07-13T12:29:51;25.70;99.90
15922;DHT22;8060;50.948;3.146;2023-07-13T12:32:24;25.90;99.90
15922;DHT22;8060;50.948;3.146;2023-07-13T12:34:55;25.70;99.90
15922;DHT22;8060;50.948;3.146;2023-07-13T12:37:23;25.60;99.90
15922;DHT22;8060;50.948;3.146;2023-07-13T12:39:52;25.50;99.90
15922;DHT22;8060;50.948;3.146;2023-07-13T12:42:23;25.70;99.90
15922;DHT22;8060;50.948;3.146;2023-07-13T12:44:57;25.70;99.90
15922;DHT22;8060;50.948;3.146;2023-07-13T12:47:28;25.80;99.90
15922;DHT22;8060;50.948;3.146;2023-07-13T12:49:59;26.20;99.90
15922;DHT22;8060;50.948;3.146;2023-07-13T12:52:30;26.30;99.90
15922;DHT22;8060;50.948;3.146;2023-07-13T12:55:06;26.30;99.90
15922;DHT22;8060;50.948;3.146;2023-07-13T12:57:41;26.00;99.90
15922;DHT22;8060;50.948;3.146;2023-07-13T13:00:24;25.70;99.90
15922;DHT22;8060;50.948;3.146;2023-07-13T13:02:57;25.40;99.90
15922;DHT22;8060;50.948;3.146;2023-07-13T13:05:47;25.20;99.90
15922;DHT22;8060;50.948;3.146;2023-07-13T13:08:15;24.80;99.90
15922;DHT22;8060;50.948;3.146;2023-07-13T13:10:44;24.90;99.90
15922;DHT22;8060;50.948;3.146;2023-07-13T13:13:12;25.10;99.90
15922;DHT22;8060;50.948;3.146;2023-07-13T13:15:41;25.20;99.90
15922;DHT22;8060;50.948;3.146;2023-07-13T13:18:16;25.40;99.90
15922;DHT22;8060;50.948;3.146;2023-07-13T13:20:45;25.60;99.90
15922;DHT22;8060;50.948;3.146;2023-07-13T13:23:15;25.60;99.90
15922;DHT22;8060;50.948;3.146;2023-07-13T13:25:45;25.50;99.90
15922;DHT22;8060;50.948;3.146;2023-07-13T13:28:15;25.40;99.90
15922;DHT22;8060;50.948;3.146;2023-07-13T13:30:45;25.40;99.90
15922;DHT22;8060;50.948;3.146;2023-07-13T13:33:17;25.20;99.90
15922;DHT22;8060;50.948;3.146;2023-07-13T13:35:46;25.20;99.90
15922;DHT22;8060;50.948;3.146;2023-07-13T13:38:16;25.40;99.90
15922;DHT22;8060;50.948;3.146;2023-07-13T13:40:45;25.60;99.90
15922;DHT22;8060;50.948;3.146;2023-07-13T13:43:17;25.60;99.90
15922;DHT22;8060;50.948;3.146;2023-07-13T13:45:46;25.60;99.90
15922;DHT22;8060;50.948;3.146;2023-07-13T13:48:18;25.80;99.90
15922;DHT22;8060;50.948;3.146;2023-07-13T13:50:47;25.70;99.90
15922;DHT22;8060;50.948;3.146;2023-07-13T13:53:16;25.70;99.90
15922;DHT22;8060;50.948;3.146;2023-07-13T13:55:44;26.00;99.90
15922;DHT22;8060;50.948;3.146;2023-07-13T13:58:13;25.90;99.90
15922;DHT22;8060;50.948;3.146;2023-07-13T14:00:42;25.60;99.90
15922;DHT22;8060;50.948;3.146;2023-07-13T14:03:17;25.40;99.90
15922;DHT22;8060;50.948;3.146;2023-07-13T14:05:46;25.50;99.90
15922;DHT22;8060;50.948;3.146;2023-07-13T14:08:16;25.60;99.90
15922;DHT22;8060;50.948;3.146;2023-07-13T14:10:47;25.60;99.90
15922;DHT22;8060;50.948;3.146;2023-07-13T14:13:18;25.60;99.90
15922;DHT22;8060;50.948;3.146;2023-07-13T14:15:48;25.60;99.90
15922;DHT22;8060;50.948;3.146;2023-07-13T14:18:18;25.50;99.90
15922;DHT22;8060;50.948;3.146;2023-07-13T14:20:47;25.50;99.90
15922;DHT22;8060;50.948;3.146;2023-07-13T14:23:17;25.70;99.90
15922;DHT22;8060;50.948;3.146;2023-07-13T14:25:45;25.60;99.90
15922;DHT22;8060;50.948;3.146;2023-07-13T14:28:22;25.30;99.90
15922;DHT22;8060;50.948;3.146;2023-07-13T14:30:52;25.30;99.90
15922;DHT22;8060;50.948;3.146;2023-07-13T14:33:23;25.30;99.90
15922;DHT22;8060;50.948;3.146;2023-07-13T14:35:51;25.20;99.90
15922;DHT22;8060;50.948;3.146;2023-07-13T14:38:20;25.20;99.90
15922;DHT22;8060;50.948;3.146;2023-07-13T14:40:49;25.20;99.90
15922;DHT22;8060;50.948;3.146;2023-07-13T14:43:17;25.20;99.90
15922;DHT22;8060;50.948;3.146;2023-07-13T14:45:47;25.30;99.90
15922;DHT22;8060;50.948;3.146;2023-07-13T14:48:20;25.40;99.90
15922;DHT22;8060;50.948;3.146;2023-07-13T14:50:55;25.50;99.90
15922;DHT22;8060;50.948;3.146;2023-07-13T14:53:25;25.60;99.90
15922;DHT22;8060;50.948;3.146;2023-07-13T14:55:54;25.60;99.90
15922;DHT22;8060;50.948;3.146;2023-07-13T14:58:23;25.70;99.90
15922;DHT22;8060;50.948;3.146;2023-07-13T15:00:51;25.90;99.90
15922;DHT22;8060;50.948;3.146;2023-07-13T15:03:24;25.90;99.90
15922;DHT22;8060;50.948;3.146;2023-07-13T15:05:54;25.90;99.90
15922;DHT22;8060;50.948;3.146;2023-07-13T15:08:23;26.00;99.90
15922;DHT22;8060;50.948;3.146;2023-07-13T15:10:52;26.00;99.90
15922;DHT22;8060;50.948;3.146;2023-07-13T15:13:21;26.00;99.90
15922;DHT22;8060;50.948;3.146;2023-07-13T15:15:51;25.90;99.90
15922;DHT22;8060;50.948;3.146;2023-07-13T15:18:22;25.90;99.90
15922;DHT22;8060;50.948;3.146;2023-07-13T15:20:51;25.60;99.90
15922;DHT22;8060;50.948;3.146;2023-07-13T15:23:24;25.50;99.90
15922;DHT22;8060;50.948;3.146;2023-07-13T15:25:53;25.60;99.90
15922;DHT22;8060;50.948;3.146;2023-07-13T15:28:21;25.60;99.90
15922;DHT22;8060;50.948;3.146;2023-07-13T15:30:50;25.50;99.90
15922;DHT22;8060;50.948;3.146;2023-07-13T15:33:21;25.60;99.90
15922;DHT22;8060;50.948;3.146;2023-07-13T15:35:50;25.70;99.90
15922;DHT22;8060;50.948;3.146;2023-07-13T15:38:22;25.70;99.90
15922;DHT22;8060;50.948;3.146;2023-07-13T15:40:53;25.60;99.90
15922;DHT22;8060;50.948;3.146;2023-07-13T15:43:21;25.70;99.90
15922;DHT22;8060;50.948;3.146;2023-07-13T15:45:49;25.60;99.90
15922;DHT22;8060;50.948;3.146;2023-07-13T15:48:20;25.70;99.90
15922;DHT22;8060;50.948;3.146;2023-07-13T15:50:51;25.70;99.90
15922;DHT22;8060;50.948;3.146;2023-07-13T15:53:22;25.60;99.90
15922;DHT22;8060;50.948;3.146;2023-07-13T15:55:52;25.50;99.90
15922;DHT22;8060;50.948;3.146;2023-07-13T15:58:21;25.30;99.90
15922;DHT22;8060;50.948;3.146;2023-07-13T16:00:49;25.40;99.90
15922;DHT22;8060;50.948;3.146;2023-07-13T16:03:19;25.20;99.90
15922;DHT22;8060;50.948;3.146;2023-07-13T16:05:47;25.20;99.90
15922;DHT22;8060;50.948;3.146;2023-07-13T16:08:22;25.10;99.90
15922;DHT22;8060;50.948;3.146;2023-07-13T16:10:53;25.00;99.90
15922;DHT22;8060;50.948;3.146;2023-07-13T16:13:21;24.90;99.90
15922;DHT22;8060;50.948;3.146;2023-07-13T16:15:52;24.80;99.90
15922;DHT22;8060;50.948;3.146;2023-07-13T16:18:24;24.80;99.90
15922;DHT22;8060;50.948;3.146;2023-07-13T16:20:52;24.80;99.90
15922;DHT22;8060;50.948;3.146;2023-07-13T16:23:24;24.80;99.90
15922;DHT22;8060;50.948;3.146;2023-07-13T16:25:54;24.80;99.90
15922;DHT22;8060;50.948;3.146;2023-07-13T16:28:23;24.80;99.90
15922;DHT22;8060;50.948;3.146;2023-07-13T16:30:52;24.70;99.90
15922;DHT22;8060;50.948;3.146;2023-07-13T16:33:21;24.70;99.90
15922;DHT22;8060;50.948;3.146;2023-07-13T16:35:50;24.60;99.90
15922;DHT22;8060;50.948;3.146;2023-07-13T16:38:21;24.70;99.90
15922;DHT22;8060;50.948;3.146;2023-07-13T16:40:51;24.70;99.90
15922;DHT22;8060;50.948;3.146;2023-07-13T16:43:21;24.70;99.90
15922;DHT22;8060;50.948;3.146;2023-07-13T16:45:50;24.60;99.90
15922;DHT22;8060;50.948;3.146;2023-07-13T16:48:21;24.60;99.90
15922;DHT22;8060;50.948;3.146;2023-07-13T16:50:54;24.50;99.90
15922;DHT22;8060;50.948;3.146;2023-07-13T16:53:26;24.50;99.90
15922;DHT22;8060;50.948;3.146;2023-07-13T16:55:55;24.30;99.90
15922;DHT22;8060;50.948;3.146;2023-07-13T16:58:29;24.10;99.90
15922;DHT22;8060;50.948;3.146;2023-07-13T17:00:59;24.00;99.90
15922;DHT22;8060;50.948;3.146;2023-07-13T17:03:30;24.00;99.90
15922;DHT22;8060;50.948;3.146;2023-07-13T17:06:04;24.00;99.90
15922;DHT22;8060;50.948;3.146;2023-07-13T17:08:43;23.90;99.90
15922;DHT22;8060;50.948;3.146;2023-07-13T17:11:12;24.00;99.90
15922;DHT22;8060;50.948;3.146;2023-07-13T17:13:41;24.00;99.90
15922;DHT22;8060;50.948;3.146;2023-07-13T17:16:10;24.00;99.90
15922;DHT22;8060;50.948;3.146;2023-07-13T17:18:39;24.00;99.90
15922;DHT22;8060;50.948;3.146;2023-07-13T17:21:13;23.80;99.90
15922;DHT22;8060;50.948;3.146;2023-07-13T17:23:42;23.80;99.90
15922;DHT22;8060;50.948;3.146;2023-07-13T17:26:11;23.80;99.90
15922;DHT22;8060;50.948;3.146;2023-07-13T17:28:41;23.70;99.90
15922;DHT22;8060;50.948;3.146;2023-07-13T17:31:17;23.70;99.90
15922;DHT22;8060;50.948;3.146;2023-07-13T17:33:50;23.50;99.90
15922;DHT22;8060;50.948;3.146;2023-07-13T17:36:19;23.50;99.90
15922;DHT22;8060;50.948;3.146;2023-07-13T17:38:48;23.60;99.90
15922;DHT22;8060;50.948;3.146;2023-07-13T17:41:23;23.60;99.90
15922;DHT22;8060;50.948;3.146;2023-07-13T17:43:53;23.70;99.90
15922;DHT22;8060;50.948;3.146;2023-07-13T17:46:26;23.70;99.90
15922;DHT22;8060;50.948;3.146;2023-07-13T17:48:56;23.70;99.90
15922;DHT22;8060;50.948;3.146;2023-07-13T17:51:24;23.60;99.90
15922;DHT22;8060;50.948;3.146;2023-07-13T17:53:55;23.60;99.90
15922;DHT22;8060;50.948;3.146;2023-07-13T17:56:24;23.50;99.90
15922;DHT22;8060;50.948;3.146;2023-07-13T17:58:54;23.40;99.90
15922;DHT22;8060;50.948;3.146;2023-07-13T18:01:23;23.30;99.90
15922;DHT22;8060;50.948;3.146;2023-07-13T18:03:53;23.30;99.90
15922;DHT22;8060;50.948;3.146;2023-07-13T18:06:27;23.20;99.90
15922;DHT22;8060;50.948;3.146;2023-07-13T18:08:58;23.20;99.90
15922;DHT22;8060;50.948;3.146;2023-07-13T18:11:33;23.20;99.90
15922;DHT22;8060;50.948;3.146;2023-07-13T18:14:03;23.10;99.90
15922;DHT22;8060;50.948;3.146;2023-07-13T18:16:32;23.00;99.90
15922;DHT22;8060;50.948;3.146;2023-07-13T18:19:03;23.00;99.90
15922;DHT22;8060;50.948;3.146;2023-07-13T18:21:33;22.90;99.90
15922;DHT22;8060;50.948;3.146;2023-07-13T18:24:02;22.90;99.90
15922;DHT22;8060;50.948;3.146;2023-07-13T18:26:31;22.80;99.90
15922;DHT22;8060;50.948;3.146;2023-07-13T18:28:59;22.80;99.90
15922;DHT22;8060;50.948;3.146;2023-07-13T18:31:33;22.70;99.90
15922;DHT22;8060;50.948;3.146;2023-07-13T18:34:02;22.70;99.90
15922;DHT22;8060;50.948;3.146;2023-07-13T18:36:31;22.70;99.90
15922;DHT22;8060;50.948;3.146;2023-07-13T18:38:59;22.70;99.90
15922;DHT22;8060;50.948;3.146;2023-07-13T18:41:27;22.70;99.90
15922;DHT22;8060;50.948;3.146;2023-07-13T18:43:55;22.60;99.90
15922;DHT22;8060;50.948;3.146;2023-07-13T18:46:25;22.60;99.90
15922;DHT22;8060;50.948;3.146;2023-07-13T18:48:56;22.50;99.90
15922;DHT22;8060;50.948;3.146;2023-07-13T18:51:25;22.40;99.90
15922;DHT22;8060;50.948;3.146;2023-07-13T18:53:55;22.30;99.90
15922;DHT22;8060;50.948;3.146;2023-07-13T18:56:24;22.20;99.90
15922;DHT22;8060;50.948;3.146;2023-07-13T18:58:54;22.10;99.90
15922;DHT22;8060;50.948;3.146;2023-07-13T19:01:27;22.20;99.90
15922;DHT22;8060;50.948;3.146;2023-07-13T19:03:58;22.00;99.90
15922;DHT22;8060;50.948;3.146;2023-07-13T19:06:28;22.00;99.90
15922;DHT22;8060;50.948;3.146;2023-07-13T19:08:56;21.90;99.90
15922;DHT22;8060;50.948;3.146;2023-07-13T19:11:25;22.00;99.90
15922;DHT22;8060;50.948;3.146;2023-07-13T19:13:53;21.90;99.90
15922;DHT22;8060;50.948;3.146;2023-07-13T19:16:21;21.90;99.90
15922;DHT22;8060;50.948;3.146;2023-07-13T19:18:51;21.80;99.90
